Time;durP1;ratioP1;P1;durP2;ratioP2;P2;SDS_P1;SDS_P2;PMS_P1;PMS_P2;Temp;Humidity;BMP_temperature;BMP_pressure;BME280_temperature;BME280_humidity;BME280_pressure;Samples;Min_cycle;Max_cycle;Signal;HPM_P1;HPM_P2
2024/04/15 00:01:28;;;;;;;12.20;1.70;;;;;;;;;;5087058;27;89271;-89
2024/04/15 00:03:56;;;;;;;5.00;1.50;;;;;;;;;;5085479;27;87053;-87
2024/04/15 00:06:24;;;;;;;;;;;;;;;;;;5088550;27;87882;-88
2024/04/15 00:08:54;;;;;;;5.30;1.42;;;;;;;;;;5086645;27;89045;-88
2024/04/15 00:11:22;;;;;;;5.65;1.50;;;;;;;;;;5062263;27;88488;-88
2024/04/15 00:13:49;;;;;;;5.78;1.63;;;;;;;;;;5094708;27;88584;-87
2024/04/15 00:16:17;;;;;;;5.13;1.25;;;;;;;;;;5084676;27;86779;-85
2024/04/15 00:18:43;;;;;;;;;;;;;;;;;;5085170;27;87899;-86
2024/04/15 00:21:12;;;;;;;5.18;1.30;;;;;;;;;;5086845;27;89518;-85
2024/04/15 00:23:39;;;;;;;;;;;;;;;;;;5085416;27;86750;-85
2024/04/15 00:26:06;;;;;;;6.45;1.45;;;;;;;;;;5087234;27;86430;-85
2024/04/15 00:28:33;;;;;;;;;;;;;;;;;;5059232;27;89310;-86
2024/04/15 00:31:01;;;;;;;5.28;1.30;;;;;;;;;;5105389;27;88976;-86
2024/04/15 00:33:28;;;;;;;5.50;1.13;;;;;;;;;;5062342;27;86312;-85
2024/04/15 00:35:58;;;;;;;5.13;1.38;;;;;;;;;;5076234;27;88388;-85
2024/04/15 00:38:27;;;;;;;3.67;1.27;;;;;;;;;;5064217;27;87414;-86
2024/04/15 00:40:54;;;;;;;;;;;;;;;;;;5065150;27;89594;-85
2024/04/15 00:43:22;;;;;;;4.47;1.40;;;;;;;;;;5092548;27;87053;-85
2024/04/15 00:45:50;;;;;;;6.55;1.50;;;;;;;;;;5092830;27;86286;-86
2024/04/15 00:48:17;;;;;;;;;;;;;;;;;;5073855;27;87130;-86
2024/04/15 00:50:46;;;;;;;5.40;1.25;;;;;;;;;;5118782;27;86796;-85
2024/04/15 00:53:15;;;;;;;5.57;1.40;;;;;;;;;;5119131;27;86914;-83
2024/04/15 00:55:44;;;;;;;6.30;1.52;;;;;;;;;;5065335;27;89775;-85
2024/04/15 00:58:16;;;;;;;4.35;1.35;;;;;;;;;;5062728;27;88023;-87
2024/04/15 01:00:51;;;;;;;7.28;1.63;;;;;;;;;;5075880;27;86890;-88
2024/04/15 01:03:25;;;;;;;6.97;1.30;;;;;;;;;;5037241;27;89655;-90
2024/04/15 01:05:58;;;;;;;5.00;1.40;;;;;;;;;;5001828;27;88201;-90
2024/04/15 01:08:51;;;;;;;7.82;1.48;;;;;;;;;;5022011;28;88370;-89
2024/04/15 01:11:43;;;;;;;6.05;1.50;;;;;;;;;;5030973;28;86672;-88
2024/04/15 01:14:30;;;;;;;5.60;1.38;;;;;;;;;;5005033;27;91951;-89
2024/04/15 01:17:04;;;;;;;9.73;1.42;;;;;;;;;;5013247;27;86194;-86
2024/04/15 01:19:35;;;;;;;5.60;1.40;;;;;;;;;;5034855;28;87997;-85
2024/04/15 01:22:05;;;;;;;;;;;;;;;;;;5062664;27;90507;-87
2024/04/15 01:24:34;;;;;;;5.32;1.40;;;;;;;;;;5062842;27;89512;-86
2024/04/15 01:27:00;;;;;;;7.00;1.50;;;;;;;;;;5004964;28;87440;-86
2024/04/15 01:29:28;;;;;;;4.47;1.25;;;;;;;;;;5004686;28;86134;-86
2024/04/15 01:31:57;;;;;;;4.85;1.42;;;;;;;;;;5027788;28;86606;-85
2024/04/15 01:34:34;;;;;;;6.32;1.40;;;;;;;;;;5027596;28;87265;-85
2024/04/15 01:37:02;;;;;;;3.95;1.23;;;;;;;;;;5025264;28;90205;-85
2024/04/15 01:39:32;;;;;;;5.65;1.40;;;;;;;;;;5028158;28;88350;-85
2024/04/15 01:42:02;;;;;;;3.75;1.17;;;;;;;;;;5042221;27;89098;-87
2024/04/15 01:44:31;;;;;;;8.07;1.40;;;;;;;;;;5030719;28;87061;-83
2024/04/15 01:46:58;;;;;;;8.27;1.70;;;;;;;;;;5052317;27;86196;-84
2024/04/15 01:49:26;;;;;;;8.05;1.55;;;;;;;;;;5052768;27;86156;-84
2024/04/15 01:51:53;;;;;;;7.78;1.42;;;;;;;;;;5028080;28;89255;-85
2024/04/15 01:54:20;;;;;;;6.97;1.40;;;;;;;;;;5026777;28;88193;-87
2024/04/15 01:56:47;;;;;;;;;;;;;;;;;;5081136;27;89121;-86
2024/04/15 01:59:18;;;;;;;6.43;1.27;;;;;;;;;;5061295;27;87641;-87
2024/04/15 02:01:45;;;;;;;5.25;1.23;;;;;;;;;;5043498;27;86957;-85
2024/04/15 02:04:18;;;;;;;5.93;1.50;;;;;;;;;;5092382;27;89504;-89
2024/04/15 02:06:53;;;;;;;4.35;1.35;;;;;;;;;;5039781;27;88423;-89
2024/04/15 02:09:25;;;;;;;6.10;1.55;;;;;;;;;;5049549;27;88670;-89
2024/04/15 02:12:18;;;;;;;6.10;1.50;;;;;;;;;;5018462;27;87513;-86
2024/04/15 02:14:50;;;;;;;6.25;1.40;;;;;;;;;;5084016;27;88329;-85
2024/04/15 02:17:21;;;;;;;4.80;1.20;;;;;;;;;;5085681;27;86687;-86
2024/04/15 02:19:53;;;;;;;3.40;1.20;;;;;;;;;;5083716;27;87325;-85
2024/04/15 02:22:21;;;;;;;3.95;1.20;;;;;;;;;;5050249;27;86876;-86
2024/04/15 02:24:58;;;;;;;4.13;1.10;;;;;;;;;;5116186;27;89552;-83
2024/04/15 02:27:33;;;;;;;5.95;1.23;;;;;;;;;;5087991;27;88131;-83
2024/04/15 02:30:04;;;;;;;5.25;1.40;;;;;;;;;;5088108;27;86700;-87
2024/04/15 02:32:33;;;;;;;;;;;;;;;;;;5091467;27;87198;-84
2024/04/15 02:35:01;;;;;;;7.05;1.35;;;;;;;;;;5118046;27;86141;-86
2024/04/15 02:37:31;;;;;;;5.28;1.10;;;;;;;;;;5077185;27;89256;-84
2024/04/15 02:39:59;;;;;;;7.85;1.30;;;;;;;;;;5055367;27;89269;-84
2024/04/15 02:42:28;;;;;;;4.25;1.10;;;;;;;;;;5057610;27;88822;-84
2024/04/15 02:44:56;;;;;;;3.55;1.20;;;;;;;;;;5084105;27;87644;-84
2024/04/15 02:47:23;;;;;;;6.47;1.20;;;;;;;;;;5060083;27;87354;-82
2024/04/15 02:49:50;;;;;;;;;;;;;;;;;;5080598;27;87825;-83
2024/04/15 02:52:19;;;;;;;3.80;1.10;;;;;;;;;;5074629;27;89228;-84
2024/04/15 02:54:47;;;;;;;5.47;1.30;;;;;;;;;;5089211;27;86161;-84
2024/04/15 02:57:15;;;;;;;5.22;1.17;;;;;;;;;;5088542;27;86288;-83
2024/04/15 02:59:44;;;;;;;3.83;1.20;;;;;;;;;;5088746;27;87446;-85
2024/04/15 03:02:12;;;;;;;3.22;1.13;;;;;;;;;;5089043;27;86562;-84
2024/04/15 03:04:40;;;;;;;3.53;1.13;;;;;;;;;;5086949;27;89059;-84
2024/04/15 03:07:08;;;;;;;7.15;1.33;;;;;;;;;;5088002;27;88186;-85
2024/04/15 03:09:41;;;;;;;5.38;1.20;;;;;;;;;;5033078;27;92602;-83
2024/04/15 03:12:12;;;;;;;4.65;1.50;;;;;;;;;;5084590;27;89694;-85
2024/04/15 03:14:40;;;;;;;9.70;1.75;;;;;;;;;;5055217;27;88364;-84
2024/04/15 03:17:08;;;;;;;;;;;;;;;;;;5083265;27;89783;-85
2024/04/15 03:19:35;;;;;;;6.10;1.50;;;;;;;;;;5078750;27;89350;-83
2024/04/15 03:22:05;;;;;;;6.80;1.58;;;;;;;;;;5023147;28;86448;-84
2024/04/15 03:24:36;;;;;;;4.47;1.40;;;;;;;;;;5051048;28;86765;-85
2024/04/15 03:27:07;;;;;;;5.38;1.60;;;;;;;;;;4999492;28;89935;-83
2024/04/15 03:29:34;;;;;;;5.43;1.60;;;;;;;;;;5054318;27;86793;-85
2024/04/15 03:32:03;;;;;;;6.22;1.38;;;;;;;;;;5022458;28;91158;-84
2024/04/15 03:34:31;;;;;;;6.65;1.60;;;;;;;;;;5018161;27;91757;-84
2024/04/15 03:37:01;;;;;;;5.53;1.65;;;;;;;;;;5086371;27;89613;-84
2024/04/15 03:39:33;;;;;;;5.05;1.40;;;;;;;;;;5056636;27;87395;-84
2024/04/15 03:42:03;;;;;;;7.13;1.60;;;;;;;;;;5112099;27;92394;-85
2024/04/15 03:44:37;;;;;;;7.57;1.50;;;;;;;;;;5059680;27;89260;-90
2024/04/15 03:47:13;;;;;;;5.28;1.35;;;;;;;;;;5065352;27;86723;-90
2024/04/15 03:49:45;;;;;;;4.20;1.20;;;;;;;;;;5012591;27;88949;-89
2024/04/15 03:52:27;;;;;;;5.75;1.33;;;;;;;;;;5054446;27;88601;-87
2024/04/15 03:54:58;;;;;;;6.65;1.40;;;;;;;;;;5051759;28;88624;-86
2024/04/15 03:57:27;;;;;;;5.15;1.60;;;;;;;;;;5024547;28;86092;-87
2024/04/15 04:00:02;;;;;;;5.78;1.33;;;;;;;;;;5025150;27;87317;-87
2024/04/15 04:02:38;;;;;;;6.32;1.38;;;;;;;;;;5033197;27;86516;-89
2024/04/15 04:05:18;;;;;;;6.15;1.38;;;;;;;;;;5029030;27;87860;-85
2024/04/15 04:07:49;;;;;;;7.38;1.48;;;;;;;;;;5027700;27;87451;-86
2024/04/15 04:10:19;;;;;;;4.22;1.30;;;;;;;;;;5083414;27;86699;-88
2024/04/15 04:12:51;;;;;;;5.53;1.40;;;;;;;;;;5054815;27;89522;-87
2024/04/15 04:15:23;;;;;;;4.38;1.30;;;;;;;;;;5068102;27;89101;-87
2024/04/15 04:17:57;;;;;;;4.90;1.25;;;;;;;;;;5055167;27;87332;-88
2024/04/15 04:20:31;;;;;;;4.45;1.30;;;;;;;;;;5086733;27;86456;-84
2024/04/15 04:23:01;;;;;;;6.55;1.50;;;;;;;;;;5087449;27;86607;-85
2024/04/15 04:25:30;;;;;;;7.93;1.30;;;;;;;;;;5059828;27;87988;-85
2024/04/15 04:28:02;;;;;;;3.72;1.20;;;;;;;;;;5084955;27;93617;-84
2024/04/15 04:30:37;;;;;;;6.43;1.50;;;;;;;;;;5060548;27;86631;-86
2024/04/15 04:33:13;;;;;;;5.68;1.50;;;;;;;;;;5059135;27;87299;-86
2024/04/15 04:35:50;;;;;;;5.95;1.30;;;;;;;;;;5059280;27;88045;-86
2024/04/15 04:38:32;;;;;;;7.10;1.50;;;;;;;;;;5062125;27;86676;-83
2024/04/15 04:41:00;;;;;;;4.90;1.55;;;;;;;;;;5058416;27;86891;-84
2024/04/15 04:43:27;;;;;;;5.90;1.40;;;;;;;;;;5032271;27;88183;-85
2024/04/15 04:46:06;;;;;;;6.43;1.60;;;;;;;;;;5114613;27;87086;-84
2024/04/15 04:48:35;;;;;;;7.63;1.42;;;;;;;;;;5073993;27;86320;-85
2024/04/15 04:51:06;;;;;;;5.35;1.38;;;;;;;;;;5058366;27;87453;-84
2024/04/15 04:53:33;;;;;;;5.13;1.30;;;;;;;;;;5056899;27;87566;-83
2024/04/15 04:56:09;;;;;;;6.47;1.50;;;;;;;;;;5055625;27;88832;-84
2024/04/15 04:58:38;;;;;;;4.53;1.20;;;;;;;;;;5058099;27;86463;-83
2024/04/15 05:01:09;;;;;;;7.22;1.55;;;;;;;;;;5086122;27;86693;-83
2024/04/15 05:03:40;;;;;;;4.53;1.30;;;;;;;;;;5028433;27;87117;-83
2024/04/15 05:06:11;;;;;;;5.40;1.40;;;;;;;;;;5082571;27;88826;-83
2024/04/15 05:08:39;;;;;;;7.10;1.50;;;;;;;;;;5083014;27;86907;-79
2024/04/15 05:11:09;;;;;;;7.88;1.80;;;;;;;;;;5084344;27;88288;-84
2024/04/15 05:13:38;;;;;;;7.82;1.50;;;;;;;;;;5035985;27;86720;-85
2024/04/15 05:16:09;;;;;;;9.27;1.60;;;;;;;;;;5079386;27;89610;-85
2024/04/15 05:18:40;;;;;;;4.95;1.40;;;;;;;;;;5082846;27;88227;-87
2024/04/15 05:21:17;;;;;;;5.45;1.35;;;;;;;;;;5021673;27;88872;-83
2024/04/15 05:23:52;;;;;;;7.35;1.42;;;;;;;;;;5057029;27;86939;-85
2024/04/15 05:26:22;;;;;;;5.97;1.70;;;;;;;;;;5055201;27;95662;-85
2024/04/15 05:28:57;;;;;;;5.88;1.30;;;;;;;;;;5080646;27;87935;-85
2024/04/15 05:31:28;;;;;;;5.30;1.30;;;;;;;;;;5053378;27;86831;-85
2024/04/15 05:33:57;;;;;;;4.65;1.30;;;;;;;;;;5025833;27;86631;-85
2024/04/15 05:36:30;;;;;;;6.63;1.60;;;;;;;;;;5031917;27;87522;-82
2024/04/15 05:39:02;;;;;;;6.25;1.45;;;;;;;;;;5082457;27;86734;-83
2024/04/15 05:41:30;;;;;;;5.32;1.40;;;;;;;;;;5049246;27;86024;-84
2024/04/15 05:43:57;;;;;;;7.03;1.50;;;;;;;;;;5051537;27;88680;-83
2024/04/15 05:46:26;;;;;;;6.63;1.60;;;;;;;;;;5022027;27;87722;-83
2024/04/15 05:48:57;;;;;;;6.43;1.40;;;;;;;;;;5085523;27;87128;-83
2024/04/15 05:51:35;;;;;;;6.22;1.45;;;;;;;;;;5031578;27;86343;-84
2024/04/15 05:54:05;;;;;;;5.93;1.40;;;;;;;;;;5053035;27;92337;-86
2024/04/15 05:56:52;;;;;;;6.70;1.60;;;;;;;;;;5061129;27;86586;-85
2024/04/15 05:59:47;;;;;;;6.40;1.40;;;;;;;;;;5118663;27;86399;-86
2024/04/15 06:02:45;;;;;;;11.10;1.70;;;;;;;;;;5581311;22;90144;-84
2024/04/15 06:05:29;;;;;;;15.10;1.80;;;;;;;;;;5660490;22;88613;-83
2024/04/15 06:08:09;;;;;;;9.48;1.52;;;;;;;;;;5031368;27;92698;-86
2024/04/15 06:10:40;;;;;;;7.28;1.38;;;;;;;;;;5076587;27;90072;-82
2024/04/15 06:13:09;;;;;;;7.55;1.48;;;;;;;;;;5047666;27;86873;-85
2024/04/15 06:15:38;;;;;;;5.50;1.50;;;;;;;;;;5048974;27;87841;-85
2024/04/15 06:18:07;;;;;;;6.82;1.48;;;;;;;;;;5029711;27;86804;-85
2024/04/15 06:20:35;;;;;;;7.20;1.58;;;;;;;;;;5063228;27;89070;-86
2024/04/15 06:23:04;;;;;;;5.53;1.40;;;;;;;;;;5050551;27;88629;-85
2024/04/15 06:25:33;;;;;;;4.63;1.33;;;;;;;;;;5074173;27;87302;-85
2024/04/15 06:28:00;;;;;;;6.60;1.58;;;;;;;;;;5062990;27;88924;-85
2024/04/15 06:30:41;;;;;;;7.47;1.50;;;;;;;;;;5031809;27;92721;-82
2024/04/15 06:33:14;;;;;;;7.80;1.33;;;;;;;;;;5053894;27;87095;-82
2024/04/15 06:35:45;;;;;;;5.60;1.42;;;;;;;;;;5095211;27;86464;-82
2024/04/15 06:38:58;;;;;;;6.43;1.50;;;;;;;;;;5027728;27;88733;-83
2024/04/15 06:41:32;;;;;;;9.05;2.10;;;;;;;;;;5048667;27;86257;-84
2024/04/15 06:44:03;;;;;;;7.22;1.40;;;;;;;;;;5098184;27;92904;-84
2024/04/15 06:46:39;;;;;;;4.00;1.20;;;;;;;;;;5042401;27;86671;-81
2024/04/15 06:49:06;;;;;;;;;;;;;;;;;;5047416;27;87607;-81
2024/04/15 06:51:53;;;;;;;5.55;1.30;;;;;;;;;;5057994;27;86546;-82
2024/04/15 06:57:43;;;;;;;4.45;1.27;;;;;;;;;;5049164;27;85977;-82
2024/04/15 07:00:29;;;;;;;7.28;1.38;;;;;;;;;;5074451;27;88494;-81
2024/04/15 07:03:19;;;;;;;5.15;1.25;;;;;;;;;;5071843;27;88501;-80
2024/04/15 07:06:00;;;;;;;5.70;1.20;;;;;;;;;;5061486;27;87351;-81
2024/04/15 07:08:43;;;;;;;6.18;1.25;;;;;;;;;;5066080;27;87941;-81
2024/04/15 07:11:13;;;;;;;6.90;1.40;;;;;;;;;;5033975;27;86181;-82
2024/04/15 07:13:56;;;;;;;3.70;1.00;;;;;;;;;;4982495;28;86707;-81
2024/04/15 07:16:34;;;;;;;4.25;1.13;;;;;;;;;;5014146;28;87236;-83
2024/04/15 07:19:12;;;;;;;4.30;1.20;;;;;;;;;;4989815;28;87907;-81
2024/04/15 07:21:42;;;;;;;5.45;1.13;;;;;;;;;;5012093;28;86400;-80
2024/04/15 07:24:33;;;;;;;4.68;1.10;;;;;;;;;;5002660;28;85977;-82
2024/04/15 07:27:02;;;;;;;5.30;1.20;;;;;;;;;;5039576;27;86510;-82
2024/04/15 07:29:35;;;;;;;5.30;1.30;;;;;;;;;;5027125;27;89350;-83
2024/04/15 07:32:15;;;;;;;4.80;1.40;;;;;;;;;;4986313;28;90216;-80
2024/04/15 07:34:53;;;;;;;4.78;1.40;;;;;;;;;;5017811;28;90396;-82
2024/04/15 07:37:28;;;;;;;4.50;1.20;;;;;;;;;;5008837;28;89086;-81
2024/04/15 07:40:05;;;;;;;7.90;1.33;;;;;;;;;;4983062;28;93291;-81
2024/04/15 07:45:54;;;;;;;5.10;1.20;;;;;;;;;;5173081;22;87825;31
2024/04/15 07:49:30;;;;;;;3.85;1.20;;;;;;;;;;4975232;27;89585;-88
2024/04/15 07:52:53;;;;;;;6.45;1.30;;;;;;;;;;5136149;22;89061;-88
2024/04/15 07:59:55;;;;;;;7.57;1.50;;;;;;;;;;5145268;22;89213;-86
2024/04/15 08:02:45;;;;;;;4.75;1.50;;;;;;;;;;5018229;27;88631;-86
2024/04/15 08:05:24;;;;;;;4.60;1.50;;;;;;;;;;5042653;27;87630;-85
2024/04/15 08:08:51;;;;;;;7.28;1.60;;;;;;;;;;5281562;22;120259;-86
2024/04/15 08:11:44;;;;;;;5.60;1.40;;;;;;;;;;5052098;27;87005;-83
2024/04/15 08:14:43;;;;;;;5.32;1.50;;;;;;;;;;5064645;27;87000;-86
2024/04/15 08:17:42;;;;;;;5.03;1.50;;;;;;;;;;5071975;27;87566;-86
2024/04/15 08:20:41;;;;;;;;;;;;;;;;;;5085165;27;89878;-85
2024/04/15 08:23:40;;;;;;;6.32;1.55;;;;;;;;;;5066256;27;116235;-86
2024/04/15 08:26:39;;;;;;;6.13;1.73;;;;;;;;;;5018541;27;89264;-84
2024/04/15 08:29:52;;;;;;;6.13;1.52;;;;;;;;;;5228953;22;89968;-85
2024/04/15 08:33:15;;;;;;;4.53;1.48;;;;;;;;;;5140332;22;93222;-85
2024/04/15 08:36:33;;;;;;;5.18;1.40;;;;;;;;;;5021595;27;91991;-83
2024/04/15 08:39:16;;;;;;;6.40;2.03;;;;;;;;;;5080743;27;88168;-85
2024/04/15 08:42:15;;;;;;;5.22;1.67;;;;;;;;;;5009110;27;89150;-85
2024/04/15 08:45:30;;;;;;;6.07;1.65;;;;;;;;;;5078221;27;86314;-86
2024/04/15 08:48:15;;;;;;;5.90;1.60;;;;;;;;;;5052906;27;94578;-87
2024/04/15 08:51:01;;;;;;;5.40;1.60;;;;;;;;;;5064019;27;86380;-91
2024/04/15 08:53:46;;;;;;;6.65;1.90;;;;;;;;;;5079296;27;86144;-83
2024/04/15 08:56:45;;;;;;;5.55;1.70;;;;;;;;;;5073590;27;87499;-85
2024/04/15 09:00:11;;;;;;;;;;;;;;;;;;;;;
2024/04/15 09:03:04;;;;;;;5.75;1.70;;;;;;;;;;5061453;27;86997;-86
2024/04/15 09:05:49;;;;;;;5.70;1.80;;;;;;;;;;5020326;27;90222;-86
2024/04/15 09:08:39;;;;;;;7.60;1.80;;;;;;;;;;5057049;27;86507;-87
2024/04/15 09:15:13;;;;;;;5.40;1.92;;;;;;;;;;5010601;28;87696;-85
2024/04/15 09:42:00;;;;;;;4.97;1.60;;;;;;;;;;4866712;22;89718;-85
2024/04/15 09:44:46;;;;;;;5.53;1.58;;;;;;;;;;5017525;27;91816;-86
2024/04/15 09:51:52;;;;;;;5.22;1.55;;;;;;;;;;3081143;25;87538;-87
2024/04/15 09:54:35;;;;;;;4.70;1.50;;;;;;;;;;5071342;27;88099;-83
2024/04/15 09:57:08;;;;;;;4.38;1.55;;;;;;;;;;5082239;27;85992;-83
2024/04/15 09:59:41;;;;;;;4.32;1.50;;;;;;;;;;5076667;27;89906;-85
2024/04/15 10:02:26;;;;;;;4.97;1.38;;;;;;;;;;5034344;27;91136;-87
2024/04/15 10:05:44;;;;;;;5.10;1.50;;;;;;;;;;5048534;27;89948;-83
2024/04/15 10:08:17;;;;;;;5.53;1.30;;;;;;;;;;5049601;27;91978;-80
2024/04/15 10:17:27;;;;;;;5.70;1.52;;;;;;;;;;5184820;22;89661;-83
2024/04/15 10:20:45;;;;;;;;;;;;;;;;;;;;;
2024/04/15 10:23:24;;;;;;;5.03;1.27;;;;;;;;;;5058219;27;87587;-82
2024/04/15 10:25:52;;;;;;;3.28;1.45;;;;;;;;;;5052883;27;91043;-80
2024/04/15 10:28:20;;;;;;;9.48;1.67;;;;;;;;;;5070063;27;89547;-79
2024/04/15 10:30:49;;;;;;;5.80;1.42;;;;;;;;;;5042234;27;87732;-80
2024/04/15 10:33:40;;;;;;;;;;;;;;;;;;5011876;28;87582;-82
2024/04/15 10:36:11;;;;;;;;;;;;;;;;;;5077453;27;89635;-82
2024/04/15 10:38:51;;;;;;;3.88;1.40;;;;;;;;;;5031910;27;86813;-81
2024/04/15 10:41:23;;;;;;;3.83;1.30;;;;;;;;;;5053564;27;89489;-82
2024/04/15 10:44:20;;;;;;;5.20;1.50;;;;;;;;;;5005458;27;88566;-85
2024/04/15 10:50:28;;;;;;;4.88;1.48;;;;;;;;;;5033656;27;95007;-86
2024/04/15 10:53:21;;;;;;;5.75;1.50;;;;;;;;;;5097813;27;86191;-83
2024/04/15 10:56:24;;;;;;;6.93;1.48;;;;;;;;;;5076837;22;89216;31
2024/04/15 10:59:03;;;;;;;4.30;1.25;;;;;;;;;;5046533;27;87728;-86
2024/04/15 11:01:51;;;;;;;7.53;1.30;;;;;;;;;;5002240;28;89278;-84
2024/04/15 11:04:47;;;;;;;;;;;;;;;;;;;;;
2024/04/15 11:11:12;;;;;;;4.72;1.30;;;;;;;;;;5045822;28;91685;-81
2024/04/15 11:17:24;;;;;;;5.20;1.20;;;;;;;;;;4935717;28;86510;-84
2024/04/15 11:20:15;;;;;;;5.82;1.10;;;;;;;;;;4991620;28;91956;-84
2024/04/15 11:22:45;;;;;;;5.22;1.13;;;;;;;;;;5015929;27;86134;-82
2024/04/15 11:25:41;;;;;;;4.30;1.20;;;;;;;;;;5030117;27;89293;-83
2024/04/15 11:28:47;;;;;;;4.25;1.20;;;;;;;;;;4978097;27;92686;-84
2024/04/15 11:31:50;;;;;;;5.05;1.10;;;;;;;;;;5024566;27;89847;-86
2024/04/15 11:34:39;;;;;;;4.05;1.30;;;;;;;;;;5024487;27;86930;-86
2024/04/15 11:38:08;;;;;;;5.80;1.33;;;;;;;;;;6108696;22;89816;31
2024/04/15 11:41:22;;;;;;;5.25;1.30;;;;;;;;;;5185314;22;89718;-82
2024/04/15 11:44:55;;;;;;;4.47;1.20;;;;;;;;;;5029788;27;93411;-82
2024/04/15 11:47:43;;;;;;;6.03;1.30;;;;;;;;;;5147553;27;91778;-83
2024/04/15 11:50:28;;;;;;;5.20;1.23;;;;;;;;;;5107105;27;87943;-83
2024/04/15 11:53:20;;;;;;;3.22;1.10;;;;;;;;;;5096674;27;88084;-83
2024/04/15 11:56:10;;;;;;;2.95;1.20;;;;;;;;;;5026519;27;94768;-82
2024/04/15 11:58:47;;;;;;;3.88;1.20;;;;;;;;;;5016640;28;88515;-81
2024/04/15 12:01:17;;;;;;;4.03;1.20;;;;;;;;;;5039695;27;87468;-80
2024/04/15 12:03:55;;;;;;;3.55;1.00;;;;;;;;;;5012385;27;90010;-82
2024/04/15 12:06:55;;;;;;;3.30;1.20;;;;;;;;;;5016937;28;88125;-82
2024/04/15 12:09:33;;;;;;;5.45;1.30;;;;;;;;;;4991032;28;89955;-82
2024/04/15 12:12:08;;;;;;;3.78;1.05;;;;;;;;;;4991832;28;93338;-80
2024/04/15 12:14:38;;;;;;;4.80;1.30;;;;;;;;;;5017005;28;86676;-80
2024/04/15 12:17:08;;;;;;;3.42;1.10;;;;;;;;;;5012655;28;91680;-81
2024/04/15 12:19:48;;;;;;;5.32;1.20;;;;;;;;;;5011243;27;86495;-80
2024/04/15 12:22:22;;;;;;;3.92;1.10;;;;;;;;;;4978479;28;90665;-81
2024/04/15 12:25:09;;;;;;;3.30;1.10;;;;;;;;;;4998181;27;88751;-82
2024/04/15 12:27:53;;;;;;;6.47;1.40;;;;;;;;;;5073396;27;88944;-86
2024/04/15 12:30:48;;;;;;;3.58;1.20;;;;;;;;;;5082717;27;94848;-84
2024/04/15 12:37:56;;;;;;;3.85;1.25;;;;;;;;;;5080104;27;94142;-83
2024/04/15 12:44:12;;;;;;;4.30;1.20;;;;;;;;;;5039895;27;87012;-83
2024/04/15 12:47:46;;;;;;;3.20;1.02;;;;;;;;;;5005306;27;87667;-84
2024/04/15 12:50:20;;;;;;;3.63;1.20;;;;;;;;;;5090183;27;88505;-84
2024/04/15 12:52:49;;;;;;;3.47;1.00;;;;;;;;;;5049381;27;88355;-82
2024/04/15 12:55:21;;;;;;;5.10;1.20;;;;;;;;;;5038980;27;89486;-82
2024/04/15 12:57:54;;;;;;;3.45;0.90;;;;;;;;;;5017221;28;89904;-81
2024/04/15 13:00:41;;;;;;;2.90;0.95;;;;;;;;;;5019890;28;89935;-83
2024/04/15 13:03:26;;;;;;;6.40;1.10;;;;;;;;;;5010372;28;87251;-82
2024/04/15 13:06:14;;;;;;;4.13;1.00;;;;;;;;;;4987604;27;86889;-82
2024/04/15 13:09:09;;;;;;;4.18;1.13;;;;;;;;;;5013187;28;89534;-82
2024/04/15 13:12:26;;;;;;;2.72;1.00;;;;;;;;;;4994407;27;92025;-84
2024/04/15 13:15:14;;;;;;;2.38;1.00;;;;;;;;;;5040242;27;116112;-80
2024/04/15 13:17:48;;;;;;;2.22;0.93;;;;;;;;;;5036008;27;88256;-83
2024/04/15 13:20:44;;;;;;;2.97;0.82;;;;;;;;;;5030975;28;89138;-85
2024/04/15 13:23:33;;;;;;;2.85;0.90;;;;;;;;;;5057911;27;89264;-82
2024/04/15 13:26:19;;;;;;;3.17;1.00;;;;;;;;;;4951713;28;92454;-83
2024/04/15 13:29:03;;;;;;;2.28;0.88;;;;;;;;;;5014156;28;87113;-84
2024/04/15 13:31:43;;;;;;;3.72;0.95;;;;;;;;;;4973568;28;90755;-82
2024/04/15 13:35:35;;;;;;;2.72;0.80;;;;;;;;;;5002428;28;91194;-81
2024/04/15 13:38:52;;;;;;;2.90;0.90;;;;;;;;;;4944502;28;92330;-86
2024/04/15 13:51:44;;;;;;;2.78;0.85;;;;;;;;;;5196963;22;88593;-85
2024/04/15 13:54:20;;;;;;;3.58;0.98;;;;;;;;;;5039277;27;91815;-85
2024/04/15 14:01:05;;;;;;;1.77;0.90;;;;;;;;;;5299444;22;91630;-84
2024/04/15 14:04:06;;;;;;;2.10;0.93;;;;;;;;;;5010623;27;88519;-84
2024/04/15 14:10:47;;;;;;;3.47;1.05;;;;;;;;;;5835121;22;89742;-83
2024/04/15 14:13:49;;;;;;;;;;;;;;;;;;;;;
2024/04/15 14:17:14;;;;;;;;;;;;;;;;;;;;;
2024/04/15 14:20:09;;;;;;;2.20;0.73;;;;;;;;;;5093808;27;92257;-84
2024/04/15 14:36:10;;;;;;;1.85;0.80;;;;;;;;;;5108995;27;87463;-83
2024/04/15 14:45:13;;;;;;;2.08;0.80;;;;;;;;;;5396268;22;88945;-84
2024/04/15 14:48:21;;;;;;;;;;;;;;;;;;;;;
2024/04/15 14:57:46;;;;;;;2.60;0.90;;;;;;;;;;5840040;22;89857;31
2024/04/15 15:04:26;;;;;;;2.03;0.90;;;;;;;;;;5700548;22;89717;-84
2024/04/15 15:07:26;;;;;;;2.30;0.70;;;;;;;;;;5063422;27;86607;-86
2024/04/15 15:11:05;;;;;;;;;;;;;;;;;;;;;
2024/04/15 15:13:43;;;;;;;1.80;0.85;;;;;;;;;;5073442;27;88985;-89
2024/04/15 15:20:12;;;;;;;4.40;0.85;;;;;;;;;;5801081;22;89769;-87
2024/04/15 15:23:22;;;;;;;5.32;1.00;;;;;;;;;;5732326;22;121459;-87
2024/04/15 15:30:24;;;;;;;1.73;0.80;;;;;;;;;;5787462;22;89585;-86
2024/04/15 15:44:15;;;;;;;3.58;0.80;;;;;;;;;;5624184;22;89349;-85
2024/04/15 15:50:23;;;;;;;3.88;0.90;;;;;;;;;;5819495;22;89888;-86
2024/04/15 15:56:26;;;;;;;2.67;0.82;;;;;;;;;;5468177;22;88367;-87
2024/04/15 16:00:17;;;;;;;4.78;1.10;;;;;;;;;;5787874;22;89408;31
2024/04/15 16:04:07;;;;;;;4.45;1.00;;;;;;;;;;5835806;22;89784;31
2024/04/15 16:07:54;;;;;;;7.55;1.65;;;;;;;;;;5286209;22;90988;-88
2024/04/15 16:15:06;;;;;;;;;;;;;;;;;;;;;
2024/04/15 16:17:36;;;;;;;9.82;2.00;;;;;;;;;;5263631;22;88595;-87
2024/04/15 16:21:08;;;;;;;9.80;2.05;;;;;;;;;;5318991;22;90942;-90
2024/04/15 16:28:04;;;;;;;7.68;1.60;;;;;;;;;;5599179;22;89350;-89
2024/04/15 17:00:22;;;;;;;5.32;1.27;;;;;;;;;;6034172;22;89775;31
2024/04/15 17:03:54;;;;;;;;;;;;;;;;;;;;;
2024/04/15 17:27:08;;;;;;;5.28;1.10;;;;;;;;;;5113045;22;89736;-85
2024/04/15 17:33:36;;;;;;;5.18;0.93;;;;;;;;;;5471121;22;89964;-85
2024/04/15 17:37:22;;;;;;;6.10;1.00;;;;;;;;;;5471680;22;92338;-86
2024/04/15 17:57:27;;;;;;;5.97;1.10;;;;;;;;;;5322591;22;89868;-85
2024/04/15 18:07:20;;;;;;;5.45;1.10;;;;;;;;;;5299313;22;88490;-88
2024/04/15 18:10:47;;;;;;;5.47;1.02;;;;;;;;;;5361275;22;88962;-88
2024/04/15 18:14:21;;;;;;;6.38;1.08;;;;;;;;;;5141805;22;88797;-85
2024/04/15 18:27:07;;;;;;;7.35;1.10;;;;;;;;;;5498677;22;89898;-86
2024/04/15 18:37:21;;;;;;;3.78;0.90;;;;;;;;;;6084033;22;90044;31
2024/04/15 18:43:33;;;;;;;3.42;0.85;;;;;;;;;;6061241;22;89253;-86
2024/04/15 18:49:51;;;;;;;3.58;0.90;;;;;;;;;;5599106;22;89977;-84
2024/04/15 19:09:04;;;;;;;3.67;0.95;;;;;;;;;;5661678;22;89164;-86
2024/04/15 19:12:33;;;;;;;2.55;0.80;;;;;;;;;;5369048;22;88966;31
2024/04/15 19:15:17;;;;;;;2.80;0.98;;;;;;;;;;4973167;28;87867;-86
2024/04/15 19:18:02;;;;;;;2.22;0.80;;;;;;;;;;4960332;28;86419;-83
2024/04/15 19:20:39;;;;;;;2.85;0.70;;;;;;;;;;4969040;28;89506;-84
2024/04/15 19:23:14;;;;;;;2.70;0.73;;;;;;;;;;4946195;28;86987;-82
2024/04/15 19:25:56;;;;;;;1.40;0.60;;;;;;;;;;4974434;28;87375;-82
2024/04/15 19:28:55;;;;;;;2.55;0.80;;;;;;;;;;4932467;28;86971;-83
2024/04/15 19:31:38;;;;;;;3.05;0.63;;;;;;;;;;4945974;27;87239;-83
2024/04/15 19:34:26;;;;;;;1.60;0.65;;;;;;;;;;4917479;28;90352;-81
2024/04/15 19:37:02;;;;;;;1.15;0.60;;;;;;;;;;4929388;28;86828;-81
2024/04/15 19:39:39;;;;;;;3.72;0.82;;;;;;;;;;4926309;28;88295;-85
2024/04/15 19:42:14;;;;;;;2.92;0.80;;;;;;;;;;4948260;28;88609;-83
2024/04/15 19:44:45;;;;;;;1.40;0.57;;;;;;;;;;4931092;28;88342;-84
2024/04/15 19:47:22;;;;;;;2.85;0.85;;;;;;;;;;4955359;28;86798;-83
2024/04/15 19:50:02;;;;;;;2.45;0.70;;;;;;;;;;4980382;28;90399;-82
2024/04/15 19:52:40;;;;;;;1.02;0.70;;;;;;;;;;4937169;28;87859;-83
2024/04/15 19:55:25;;;;;;;2.40;0.70;;;;;;;;;;4980049;28;88796;-80
2024/04/15 19:57:57;;;;;;;2.97;0.70;;;;;;;;;;4957653;28;87252;-82
2024/04/15 20:00:34;;;;;;;2.78;0.75;;;;;;;;;;4962043;28;90563;-84
2024/04/15 20:03:18;;;;;;;3.08;0.60;;;;;;;;;;4956521;28;86423;-81
2024/04/15 20:05:44;;;;;;;1.85;0.60;;;;;;;;;;4986511;28;87022;-81
2024/04/15 20:08:12;;;;;;;4.00;0.70;;;;;;;;;;5018533;27;89444;-80
2024/04/15 20:10:50;;;;;;;1.73;0.60;;;;;;;;;;5014989;28;89425;-81
2024/04/15 20:13:21;;;;;;;4.50;0.90;;;;;;;;;;5000261;28;86830;-81
2024/04/15 20:15:54;;;;;;;1.40;0.60;;;;;;;;;;4973693;28;89435;-81
2024/04/15 20:18:34;;;;;;;1.52;0.50;;;;;;;;;;5005963;28;90205;-82
2024/04/15 20:21:13;;;;;;;1.92;0.68;;;;;;;;;;4990379;28;88923;-82
2024/04/15 20:23:41;;;;;;;2.83;0.60;;;;;;;;;;4988623;28;88953;-83
2024/04/15 20:26:08;;;;;;;3.20;0.70;;;;;;;;;;4996693;28;86782;-82
2024/04/15 20:28:39;;;;;;;2.17;0.40;;;;;;;;;;4944360;28;86604;-81
2024/04/15 20:31:06;;;;;;;1.92;0.70;;;;;;;;;;4956209;28;87799;-81
2024/04/15 20:33:45;;;;;;;1.13;0.60;;;;;;;;;;4966378;28;88438;-83
2024/04/15 20:36:17;;;;;;;1.63;0.70;;;;;;;;;;4981411;28;86490;-81
2024/04/15 20:38:44;;;;;;;3.20;0.70;;;;;;;;;;4992783;28;86771;-83
2024/04/15 20:41:13;;;;;;;1.77;0.70;;;;;;;;;;5019332;28;88661;-81
2024/04/15 20:43:44;;;;;;;1.90;0.70;;;;;;;;;;4988799;27;87021;-83
2024/04/15 20:46:12;;;;;;;2.85;0.80;;;;;;;;;;5017882;28;89415;-82
2024/04/15 20:48:42;;;;;;;2.25;0.50;;;;;;;;;;4989346;27;89042;-82
2024/04/15 20:51:18;;;;;;;1.63;0.60;;;;;;;;;;5009570;28;89196;-83